TimeEST,TemperatureF,Dew PointF,Humidity,Sea Level PressureIn,VisibilityMPH,Wind Direction,Wind SpeedMPH,Gust SpeedMPH,PrecipitationIn,Events,Conditions,WindDirDegrees,DateUTC
12:53 AM,70.0,70.0,100,30.11,9.0,SE,4.6,-,N/A,,Overcast,140,2013-01-04 05:53:00
1:53 AM,70.0,70.0,100,30.11,9.0,SE,3.5,-,N/A,,Overcast,130,2013-01-04 06:53:00
2:53 AM,69.1,69.1,100,30.11,8.0,Calm,Calm,-,N/A,,Clear,0,2013-01-04 07:53:00
3:20 AM,68.0,68.0,100,30.12,7.0,West,3.5,-,N/A,,Scattered Clouds,280,2013-01-04 08:20:00
3:29 AM,68.0,68.0,100,30.11,7.0,West,3.5,-,N/A,,Mostly Cloudy,270,2013-01-04 08:29:00
3:53 AM,69.1,69.1,100,30.11,6.0,Calm,Calm,-,N/A,,Mostly Cloudy,0,2013-01-04 08:53:00
4:09 AM,68.0,68.0,100,30.12,4.0,Calm,Calm,-,N/A,,Scattered Clouds,0,2013-01-04 09:09:00
4:36 AM,66.2,66.2,100,30.12,1.8,Calm,Calm,-,N/A,,Partly Cloudy,0,2013-01-04 09:36:00
4:53 AM,66.9,66.9,100,30.12,1.5,East,3.5,-,N/A,,Mostly Cloudy,80,2013-01-04 09:53:00
4:58 AM,66.2,66.2,100,30.12,4.0,ENE,4.6,-,N/A,,Mostly Cloudy,70,2013-01-04 09:58:00
5:53 AM,69.1,69.1,100,30.13,4.0,ENE,4.6,-,N/A,,Overcast,60,2013-01-04 10:53:00
6:53 AM,69.1,69.1,100,30.14,3.0,East,6.9,-,N/A,,Overcast,80,2013-01-04 11:53:00
7:02 AM,69.8,69.8,100,30.15,1.0,East,5.8,-,N/A,,Overcast,90,2013-01-04 12:02:00
7:53 AM,70.0,70.0,100,30.17,1.5,Calm,Calm,-,N/A,,Overcast,0,2013-01-04 12:53:00
8:19 AM,69.8,69.8,100,30.18,2.0,Calm,Calm,-,0.10,Rain,Light Rain,0,2013-01-04 13:19:00
8:53 AM,70.0,70.0,100,30.20,2.5,Calm,Calm,-,0.10,Rain,Light Rain,0,2013-01-04 13:53:00
9:07 AM,69.8,69.8,100,30.21,2.5,North,3.5,-,0.01,Rain,Light Rain,10,2013-01-04 14:07:00
9:23 AM,71.6,71.6,100,30.21,4.0,NNE,3.5,-,0.01,,Mostly Cloudy,30,2013-01-04 14:23:00
9:53 AM,71.1,71.1,100,30.21,8.0,NE,5.8,-,0.01,,Overcast,40,2013-01-04 14:53:00
10:53 AM,71.1,70.0,96,30.21,6.0,NNE,6.9,-,N/A,,Overcast,30,2013-01-04 15:53:00
11:18 AM,73.4,71.6,94,30.20,7.0,East,6.9,-,N/A,,Mostly Cloudy,80,2013-01-04 16:18:00
11:53 AM,75.0,71.1,87,30.19,8.0,East,6.9,-,N/A,,Clear,80,2013-01-04 16:53:00
12:30 PM,78.8,71.6,78,30.17,9.0,ENE,5.8,-,N/A,,Mostly Cloudy,70,2013-01-04 17:30:00
12:53 PM,80.1,70.0,71,30.16,10.0,Calm,Calm,-,N/A,,Mostly Cloudy,0,2013-01-04 17:53:00
1:53 PM,82.0,70.0,67,30.14,10.0,SW,8.1,-,N/A,,Scattered Clouds,230,2013-01-04 18:53:00
2:53 PM,78.1,70.0,76,30.13,7.0,West,9.2,-,N/A,,Scattered Clouds,280,2013-01-04 19:53:00
3:53 PM,77.0,69.1,76,30.14,6.0,NW,8.1,-,N/A,,Haze,310,2013-01-04 20:53:00
4:53 PM,75.9,69.1,79,30.14,5.0,WNW,4.6,-,N/A,,Haze,300,2013-01-04 21:53:00
5:53 PM,73.0,69.1,87,30.16,6.0,NW,4.6,-,N/A,,Clear,310,2013-01-04 22:53:00
6:40 PM,71.6,68.0,88,30.19,10.0,North,9.2,-,N/A,,Mostly Cloudy,360,2013-01-04 23:40:00
6:53 PM,71.1,68.0,90,30.19,10.0,NNE,6.9,-,N/A,,Overcast,20,2013-01-04 23:53:00
8:38 PM,69.8,66.2,88,30.23,10.0,North,6.9,-,N/A,,Overcast,10,2013-01-05 01:38:00
8:53 PM,69.1,66.0,90,30.23,10.0,NNE,6.9,-,N/A,,Overcast,20,2013-01-05 01:53:00
9:04 PM,69.8,66.2,88,30.24,10.0,NNE,9.2,-,N/A,,Overcast,20,2013-01-05 02:04:00
9:41 PM,68.0,66.2,94,30.24,7.0,NNE,9.2,-,N/A,,Overcast,20,2013-01-05 02:41:00
9:51 PM,68.0,64.4,88,30.24,8.0,NE,9.2,-,N/A,,Overcast,40,2013-01-05 02:51:00
9:53 PM,68.0,64.9,90,30.23,8.0,NNE,6.9,-,N/A,,Overcast,30,2013-01-05 02:53:00
10:53 PM,68.0,66.0,93,30.23,8.0,NE,9.2,-,N/A,,Overcast,50,2013-01-05 03:53:00
11:03 PM,68.0,64.4,88,30.23,8.0,NE,9.2,-,N/A,,Overcast,50,2013-01-05 04:03:00
11:53 PM,66.0,64.9,96,30.22,10.0,ENE,6.9,-,N/A,,Scattered Clouds,70,2013-01-05 04:53:00